sensor_id;sensor_type;location;lat;lon;timestamp;pressure;altitude;pressure_sealevel;temperature;humidity
31585;BME280;18191;51.288;12.390;2023-05-16T00:04:21;48957.13;;;-144.47;76.95
31585;BME280;18191;51.288;12.390;2023-05-16T00:09:12;48921.31;;;-144.47;77.31
31585;BME280;18191;51.288;12.390;2023-05-16T00:14:02;48891.47;;;-144.47;76.62
31585;BME280;18191;51.288;12.390;2023-05-16T00:18:52;48937.22;;;-144.47;77.67
31585;BME280;18191;51.288;12.390;2023-05-16T00:23:43;48953.13;;;-144.47;78.71
31585;BME280;18191;51.288;12.390;2023-05-16T00:28:33;48923.31;;;-144.47;78.01
31585;BME280;18191;51.288;12.390;2023-05-16T00:33:25;48937.22;;;-144.47;78.33
31585;BME280;18191;51.288;12.390;2023-05-16T00:38:15;48913.34;;;-144.47;78.84
31585;BME280;18191;51.288;12.390;2023-05-16T00:43:06;48909.38;;;-144.47;78.63
31585;BME280;18191;51.288;12.390;2023-05-16T00:47:56;48955.13;;;-144.47;79.19
31585;BME280;18191;51.288;12.390;2023-05-16T00:52:46;48905.41;;;-144.47;79.31
31585;BME280;18191;51.288;12.390;2023-05-16T00:57:37;48917.34;;;-144.47;79.66
31585;BME280;18191;51.288;12.390;2023-05-16T01:02:27;48937.22;;;-144.47;80.02
31585;BME280;18191;51.288;12.390;2023-05-16T01:07:18;48961.09;;;-144.47;81.15
31585;BME280;18191;51.288;12.390;2023-05-16T01:12:12;48971.03;;;-144.47;81.75
31585;BME280;18191;51.288;12.390;2023-05-16T01:22:19;48945.19;;;-144.47;81.37
31585;BME280;18191;51.288;12.390;2023-05-16T01:27:16;48941.19;;;-144.47;82.29
31585;BME280;18191;51.288;12.390;2023-05-16T01:32:07;48937.22;;;-144.47;80.14
31585;BME280;18191;51.288;12.390;2023-05-16T01:37:05;48933.25;;;-144.47;79.25
31585;BME280;18191;51.288;12.390;2023-05-16T01:42:05;48917.34;;;-144.47;78.94
31585;BME280;18191;51.288;12.390;2023-05-16T01:46:57;48933.25;;;-144.47;79.51
31585;BME280;18191;51.288;12.390;2023-05-16T01:51:49;48933.25;;;-144.47;79.19
31585;BME280;18191;51.288;12.390;2023-05-16T01:56:40;48925.28;;;-144.47;79.17
31585;BME280;18191;51.288;12.390;2023-05-16T02:01:35;48957.13;;;-144.47;78.25
31585;BME280;18191;51.288;12.390;2023-05-16T02:06:25;48955.13;;;-144.47;77.84
31585;BME280;18191;51.288;12.390;2023-05-16T02:11:16;48949.16;;;-144.47;76.87
31585;BME280;18191;51.288;12.390;2023-05-16T02:16:06;48969.06;;;-144.47;76.48
31585;BME280;18191;51.288;12.390;2023-05-16T02:20:56;48925.28;;;-144.47;76.24
31585;BME280;18191;51.288;12.390;2023-05-16T02:25:47;48935.25;;;-144.47;75.54
31585;BME280;18191;51.288;12.390;2023-05-16T02:30:37;48939.22;;;-144.47;75.46
31585;BME280;18191;51.288;12.390;2023-05-16T02:35:27;48943.19;;;-144.47;75.92
31585;BME280;18191;51.288;12.390;2023-05-16T02:40:17;48963.09;;;-144.47;75.89
31585;BME280;18191;51.288;12.390;2023-05-16T02:45:08;48953.13;;;-144.47;75.24
31585;BME280;18191;51.288;12.390;2023-05-16T02:49:58;48929.28;;;-144.47;75.90
31585;BME280;18191;51.288;12.390;2023-05-16T02:54:48;48951.16;;;-144.47;77.11
31585;BME280;18191;51.288;12.390;2023-05-16T02:59:39;48943.19;;;-144.47;78.19
31585;BME280;18191;51.288;12.390;2023-05-16T03:04:29;48929.28;;;-144.47;79.17
31585;BME280;18191;51.288;12.390;2023-05-16T03:09:19;48945.19;;;-144.47;79.37
31585;BME280;18191;51.288;12.390;2023-05-16T03:14:10;48893.47;;;-144.47;79.10
31585;BME280;18191;51.288;12.390;2023-05-16T03:19:01;48939.22;;;-144.47;78.94
31585;BME280;18191;51.288;12.390;2023-05-16T03:23:52;48911.38;;;-144.47;79.68
31585;BME280;18191;51.288;12.390;2023-05-16T03:28:44;48915.34;;;-144.47;78.93
31585;BME280;18191;51.288;12.390;2023-05-16T03:33:34;48925.28;;;-144.47;79.22
31585;BME280;18191;51.288;12.390;2023-05-16T03:38:24;48949.16;;;-144.47;78.62
31585;BME280;18191;51.288;12.390;2023-05-16T03:43:15;48907.38;;;-144.47;78.08
31585;BME280;18191;51.288;12.390;2023-05-16T03:48:05;48927.28;;;-144.47;78.63
31585;BME280;18191;51.288;12.390;2023-05-16T03:52:55;48921.31;;;-144.47;78.15
31585;BME280;18191;51.288;12.390;2023-05-16T03:57:47;48965.06;;;-144.47;77.44
31585;BME280;18191;51.288;12.390;2023-05-16T04:02:39;48925.28;;;-144.47;77.30
31585;BME280;18191;51.288;12.390;2023-05-16T04:07:29;48949.16;;;-144.47;76.74
31585;BME280;18191;51.288;12.390;2023-05-16T04:12:19;48933.25;;;-144.47;75.94
31585;BME280;18191;51.288;12.390;2023-05-16T04:17:10;48939.22;;;-144.47;75.58
31585;BME280;18191;51.288;12.390;2023-05-16T04:22:01;48965.06;;;-144.47;75.55
31585;BME280;18191;51.288;12.390;2023-05-16T04:26:53;48919.31;;;-144.47;75.94
31585;BME280;18191;51.288;12.390;2023-05-16T04:31:43;48941.19;;;-144.47;76.06
31585;BME280;18191;51.288;12.390;2023-05-16T04:36:34;48941.19;;;-144.47;75.80
31585;BME280;18191;51.288;12.390;2023-05-16T04:41:24;48925.28;;;-144.47;75.39
31585;BME280;18191;51.288;12.390;2023-05-16T04:46:15;48953.13;;;-144.47;74.75
31585;BME280;18191;51.288;12.390;2023-05-16T04:51:05;48909.38;;;-144.47;74.96
31585;BME280;18191;51.288;12.390;2023-05-16T04:55:55;48925.28;;;-144.47;74.95
31585;BME280;18191;51.288;12.390;2023-05-16T05:00:46;48905.41;;;-144.47;74.56
31585;BME280;18191;51.288;12.390;2023-05-16T05:05:36;48901.41;;;-144.47;74.93
31585;BME280;18191;51.288;12.390;2023-05-16T05:10:26;48947.16;;;-144.47;74.74
31585;BME280;18191;51.288;12.390;2023-05-16T05:15:16;48951.16;;;-144.47;74.86
31585;BME280;18191;51.288;12.390;2023-05-16T05:20:08;48931.25;;;-144.47;74.97
31585;BME280;18191;51.288;12.390;2023-05-16T05:24:59;48945.19;;;-144.47;74.82
31585;BME280;18191;51.288;12.390;2023-05-16T05:29:49;48923.31;;;-144.47;74.59
31585;BME280;18191;51.288;12.390;2023-05-16T05:34:39;48881.53;;;-144.47;74.45
31585;BME280;18191;51.288;12.390;2023-05-16T05:39:30;48937.22;;;-144.47;72.84
31585;BME280;18191;51.288;12.390;2023-05-16T05:44:20;48927.28;;;-144.47;72.63
31585;BME280;18191;51.288;12.390;2023-05-16T05:49:10;48949.16;;;-144.47;72.13
31585;BME280;18191;51.288;12.390;2023-05-16T05:54:00;48925.28;;;-144.47;71.00
31585;BME280;18191;51.288;12.390;2023-05-16T05:58:51;48893.47;;;-144.47;71.49
31585;BME280;18191;51.288;12.390;2023-05-16T06:03:41;48951.16;;;-144.47;69.99
31585;BME280;18191;51.288;12.390;2023-05-16T06:08:31;48907.38;;;-144.47;69.50
31585;BME280;18191;51.288;12.390;2023-05-16T06:13:22;48885.50;;;-144.47;69.17
31585;BME280;18191;51.288;12.390;2023-05-16T06:18:13;48931.25;;;-144.47;69.59
31585;BME280;18191;51.288;12.390;2023-05-16T06:23:03;48911.38;;;-144.47;69.00
31585;BME280;18191;51.288;12.390;2023-05-16T06:27:54;48903.41;;;-144.47;68.45
31585;BME280;18191;51.288;12.390;2023-05-16T06:32:44;48923.31;;;-144.47;67.48
31585;BME280;18191;51.288;12.390;2023-05-16T06:37:34;48867.59;;;-144.47;67.80
31585;BME280;18191;51.288;12.390;2023-05-16T06:42:24;48923.31;;;-144.47;67.33
31585;BME280;18191;51.288;12.390;2023-05-16T06:47:15;48899.44;;;-144.47;67.92
31585;BME280;18191;51.288;12.390;2023-05-16T06:52:05;48953.13;;;-144.47;68.23
31585;BME280;18191;51.288;12.390;2023-05-16T06:56:55;48925.28;;;-144.47;69.81
31585;BME280;18191;51.288;12.390;2023-05-16T07:01:46;48935.25;;;-144.47;70.13
31585;BME280;18191;51.288;12.390;2023-05-16T07:06:36;48899.44;;;-144.47;67.82
31585;BME280;18191;51.288;12.390;2023-05-16T07:11:26;48899.44;;;-144.47;67.85
31585;BME280;18191;51.288;12.390;2023-05-16T07:16:16;48913.34;;;-144.47;69.14
31585;BME280;18191;51.288;12.390;2023-05-16T07:21:06;48953.13;;;-144.47;68.73
31585;BME280;18191;51.288;12.390;2023-05-16T07:25:57;48925.28;;;-144.47;69.02
31585;BME280;18191;51.288;12.390;2023-05-16T07:30:47;48893.47;;;-144.47;68.52
31585;BME280;18191;51.288;12.390;2023-05-16T07:35:38;48939.22;;;-144.47;67.66
31585;BME280;18191;51.288;12.390;2023-05-16T07:40:29;48873.56;;;-144.47;67.57
31585;BME280;18191;51.288;12.390;2023-05-16T07:45:19;48905.41;;;-144.47;67.20
31585;BME280;18191;51.288;12.390;2023-05-16T07:50:09;48869.59;;;-144.47;67.75
31585;BME280;18191;51.288;12.390;2023-05-16T07:55:00;48901.41;;;-144.47;65.43
31585;BME280;18191;51.288;12.390;2023-05-16T07:59:50;48929.28;;;-144.47;63.96
31585;BME280;18191;51.288;12.390;2023-05-16T08:04:41;48901.41;;;-144.47;61.62
31585;BME280;18191;51.288;12.390;2023-05-16T08:09:33;48905.41;;;-144.47;60.24
31585;BME280;18191;51.288;12.390;2023-05-16T08:14:24;48885.50;;;-144.47;58.75
31585;BME280;18191;51.288;12.390;2023-05-16T08:19:14;48923.31;;;-144.47;61.49
31585;BME280;18191;51.288;12.390;2023-05-16T08:24:04;48901.41;;;-144.47;62.56
31585;BME280;18191;51.288;12.390;2023-05-16T08:28:56;48919.31;;;-144.47;62.69
31585;BME280;18191;51.288;12.390;2023-05-16T08:33:46;48895.44;;;-144.47;60.63
31585;BME280;18191;51.288;12.390;2023-05-16T08:38:36;48935.25;;;-144.47;59.64
31585;BME280;18191;51.288;12.390;2023-05-16T08:43:26;48873.56;;;-144.47;58.34
31585;BME280;18191;51.288;12.390;2023-05-16T08:48:17;48905.41;;;-144.47;57.57
31585;BME280;18191;51.288;12.390;2023-05-16T08:53:10;48895.44;;;-144.47;56.55
31585;BME280;18191;51.288;12.390;2023-05-16T08:58:01;48921.31;;;-144.47;56.64
31585;BME280;18191;51.288;12.390;2023-05-16T09:02:51;48881.53;;;-144.47;58.85
31585;BME280;18191;51.288;12.390;2023-05-16T09:07:42;48881.53;;;-144.47;60.72
31585;BME280;18191;51.288;12.390;2023-05-16T09:12:33;48897.44;;;-144.47;58.24
31585;BME280;18191;51.288;12.390;2023-05-16T09:17:24;48861.63;;;-144.47;56.30
31585;BME280;18191;51.288;12.390;2023-05-16T09:22:15;48905.41;;;-144.47;55.47
31585;BME280;18191;51.288;12.390;2023-05-16T09:27:12;48885.50;;;-144.47;55.28
31585;BME280;18191;51.288;12.390;2023-05-16T09:32:04;48901.41;;;-144.47;57.82
31585;BME280;18191;51.288;12.390;2023-05-16T09:36:54;48911.38;;;-144.47;58.70
31585;BME280;18191;51.288;12.390;2023-05-16T09:41:44;48881.53;;;-144.47;58.80
31585;BME280;18191;51.288;12.390;2023-05-16T09:46:36;48885.50;;;-144.47;59.10
31585;BME280;18191;51.288;12.390;2023-05-16T09:51:26;48903.41;;;-144.47;58.99
31585;BME280;18191;51.288;12.390;2023-05-16T09:56:16;48953.13;;;-144.47;58.90
31585;BME280;18191;51.288;12.390;2023-05-16T10:01:06;48881.53;;;-144.47;57.91
31585;BME280;18191;51.288;12.390;2023-05-16T10:05:57;48917.34;;;-144.47;58.24
31585;BME280;18191;51.288;12.390;2023-05-16T10:10:52;48889.50;;;-144.47;58.60
31585;BME280;18191;51.288;12.390;2023-05-16T10:15:43;48873.56;;;-144.47;59.39
31585;BME280;18191;51.288;12.390;2023-05-16T10:20:34;48921.31;;;-144.47;60.07
31585;BME280;18191;51.288;12.390;2023-05-16T10:25:28;48905.41;;;-144.47;59.22
31585;BME280;18191;51.288;12.390;2023-05-16T10:30:18;48911.38;;;-144.47;58.67
31585;BME280;18191;51.288;12.390;2023-05-16T10:35:09;48869.59;;;-144.47;56.49
31585;BME280;18191;51.288;12.390;2023-05-16T10:40:00;48893.47;;;-144.47;55.74
31585;BME280;18191;51.288;12.390;2023-05-16T10:44:54;48893.47;;;-144.47;55.71
31585;BME280;18191;51.288;12.390;2023-05-16T10:49:47;48917.34;;;-144.47;55.76
31585;BME280;18191;51.288;12.390;2023-05-16T10:54:40;48901.41;;;-144.47;56.96
31585;BME280;18191;51.288;12.390;2023-05-16T10:59:38;48929.28;;;-144.47;58.64
31585;BME280;18191;51.288;12.390;2023-05-16T11:04:44;48883.53;;;-144.47;60.32
31585;BME280;18191;51.288;12.390;2023-05-16T11:09:34;48891.47;;;-144.47;59.57
31585;BME280;18191;51.288;12.390;2023-05-16T11:24:26;48905.41;;;-144.47;59.99
31585;BME280;18191;51.288;12.390;2023-05-16T11:29:17;48885.50;;;-144.47;57.57
31585;BME280;18191;51.288;12.390;2023-05-16T11:34:07;48853.69;;;-144.47;56.38
31585;BME280;18191;51.288;12.390;2023-05-16T11:39:04;48905.41;;;-144.47;53.10
31585;BME280;18191;51.288;12.390;2023-05-16T11:43:54;48885.50;;;-144.47;50.80
31585;BME280;18191;51.288;12.390;2023-05-16T11:48:44;48897.44;;;-144.47;51.93
31585;BME280;18191;51.288;12.390;2023-05-16T11:53:36;48885.50;;;-144.47;51.71
31585;BME280;18191;51.288;12.390;2023-05-16T11:58:27;48865.63;;;-144.47;53.52
31585;BME280;18191;51.288;12.390;2023-05-16T12:03:18;48901.41;;;-144.47;51.81
31585;BME280;18191;51.288;12.390;2023-05-16T12:08:09;48865.63;;;-144.47;50.99
31585;BME280;18191;51.288;12.390;2023-05-16T12:12:59;48863.63;;;-144.47;49.61
31585;BME280;18191;51.288;12.390;2023-05-16T12:17:50;48883.53;;;-144.47;48.77
31585;BME280;18191;51.288;12.390;2023-05-16T12:22:41;48901.41;;;-144.47;49.60
31585;BME280;18191;51.288;12.390;2023-05-16T12:27:32;48873.56;;;-144.47;48.74
31585;BME280;18191;51.288;12.390;2023-05-16T12:32:22;48925.28;;;-144.47;47.80
31585;BME280;18191;51.288;12.390;2023-05-16T12:37:12;48905.41;;;-144.47;47.16
31585;BME280;18191;51.288;12.390;2023-05-16T12:42:06;48907.38;;;-144.47;45.57
31585;BME280;18191;51.288;12.390;2023-05-16T12:46:56;48915.34;;;-144.47;45.64
31585;BME280;18191;51.288;12.390;2023-05-16T12:51:48;48857.66;;;-144.47;43.01
31585;BME280;18191;51.288;12.390;2023-05-16T12:56:39;48889.50;;;-144.47;41.53
31585;BME280;18191;51.288;12.390;2023-05-16T13:01:29;48893.47;;;-144.47;41.85
31585;BME280;18191;51.288;12.390;2023-05-16T13:06:19;48869.59;;;-144.47;39.76
31585;BME280;18191;51.288;12.390;2023-05-16T13:11:10;48883.53;;;-144.47;39.95
31585;BME280;18191;51.288;12.390;2023-05-16T13:16:00;48893.47;;;-144.47;39.12
31585;BME280;18191;51.288;12.390;2023-05-16T13:20:52;48885.50;;;-144.47;39.70
31585;BME280;18191;51.288;12.390;2023-05-16T13:25:42;48859.66;;;-144.47;38.60
31585;BME280;18191;51.288;12.390;2023-05-16T13:30:32;48865.63;;;-144.47;36.60
31585;BME280;18191;51.288;12.390;2023-05-16T13:35:23;48837.78;;;-144.47;36.79
31585;BME280;18191;51.288;12.390;2023-05-16T13:40:13;48897.44;;;-144.47;35.87
31585;BME280;18191;51.288;12.390;2023-05-16T13:45:03;48917.34;;;-144.47;35.12
31585;BME280;18191;51.288;12.390;2023-05-16T13:49:54;48881.53;;;-144.47;35.30
31585;BME280;18191;51.288;12.390;2023-05-16T13:54:44;48885.50;;;-144.47;35.06
31585;BME280;18191;51.288;12.390;2023-05-16T13:59:34;48913.34;;;-144.47;35.66
31585;BME280;18191;51.288;12.390;2023-05-16T14:04:24;48853.69;;;-144.47;34.46
31585;BME280;18191;51.288;12.390;2023-05-16T14:09:19;48901.41;;;-144.47;34.57
31585;BME280;18191;51.288;12.390;2023-05-16T14:14:10;48881.53;;;-144.47;33.66
31585;BME280;18191;51.288;12.390;2023-05-16T14:19:00;48845.72;;;-144.47;32.28
31585;BME280;18191;51.288;12.390;2023-05-16T14:23:50;48877.56;;;-144.47;33.34
31585;BME280;18191;51.288;12.390;2023-05-16T14:28:41;48889.50;;;-144.47;32.79
31585;BME280;18191;51.288;12.390;2023-05-16T14:33:31;48873.56;;;-144.47;33.72
31585;BME280;18191;51.288;12.390;2023-05-16T14:38:22;48891.47;;;-144.47;33.47
31585;BME280;18191;51.288;12.390;2023-05-16T14:43:12;48837.78;;;-144.47;34.24
31585;BME280;18191;51.288;12.390;2023-05-16T14:48:02;48905.41;;;-144.47;32.36
31585;BME280;18191;51.288;12.390;2023-05-16T14:52:52;48883.53;;;-144.47;32.91
31585;BME280;18191;51.288;12.390;2023-05-16T14:57:42;48869.59;;;-144.47;32.85
31585;BME280;18191;51.288;12.390;2023-05-16T15:02:34;48879.53;;;-144.47;32.33
31585;BME280;18191;51.288;12.390;2023-05-16T15:07:24;48863.63;;;-144.47;32.13
31585;BME280;18191;51.288;12.390;2023-05-16T15:12:15;48885.50;;;-144.47;32.38
31585;BME280;18191;51.288;12.390;2023-05-16T15:17:05;48853.69;;;-144.47;32.29
31585;BME280;18191;51.288;12.390;2023-05-16T15:21:55;48897.44;;;-144.47;31.79
31585;BME280;18191;51.288;12.390;2023-05-16T15:26:45;48873.56;;;-144.47;32.02
31585;BME280;18191;51.288;12.390;2023-05-16T15:31:36;48849.69;;;-144.47;32.27
31585;BME280;18191;51.288;12.390;2023-05-16T15:36:26;48851.69;;;-144.47;32.10
31585;BME280;18191;51.288;12.390;2023-05-16T15:41:18;48829.81;;;-144.47;32.56
31585;BME280;18191;51.288;12.390;2023-05-16T15:46:08;48865.63;;;-144.47;32.24
31585;BME280;18191;51.288;12.390;2023-05-16T15:51:00;48865.63;;;-144.47;33.20
31585;BME280;18191;51.288;12.390;2023-05-16T15:55:50;48831.81;;;-144.47;33.13
31585;BME280;18191;51.288;12.390;2023-05-16T16:00:40;48839.75;;;-144.47;32.62
31585;BME280;18191;51.288;12.390;2023-05-16T16:05:31;48839.75;;;-144.47;32.56
31585;BME280;18191;51.288;12.390;2023-05-16T16:10:21;48865.63;;;-144.47;32.25
31585;BME280;18191;51.288;12.390;2023-05-16T16:15:12;48853.69;;;-144.47;32.34
31585;BME280;18191;51.288;12.390;2023-05-16T16:20:02;48861.63;;;-144.47;32.48
31585;BME280;18191;51.288;12.390;2023-05-16T16:24:52;48833.78;;;-144.47;32.27
31585;BME280;18191;51.288;12.390;2023-05-16T16:29:42;48883.53;;;-144.47;32.35
31585;BME280;18191;51.288;12.390;2023-05-16T16:34:32;48871.59;;;-144.47;31.99
31585;BME280;18191;51.288;12.390;2023-05-16T16:39:23;48819.88;;;-144.47;33.28
31585;BME280;18191;51.288;12.390;2023-05-16T16:44:14;48859.66;;;-144.47;31.76
31585;BME280;18191;51.288;12.390;2023-05-16T16:49:04;48869.59;;;-144.47;32.43
31585;BME280;18191;51.288;12.390;2023-05-16T16:53:55;48831.81;;;-144.47;33.05
31585;BME280;18191;51.288;12.390;2023-05-16T16:58:47;48897.44;;;-144.47;31.73
31585;BME280;18191;51.288;12.390;2023-05-16T17:03:37;48845.72;;;-144.47;31.81
31585;BME280;18191;51.288;12.390;2023-05-16T17:08:27;48897.44;;;-144.47;30.97
31585;BME280;18191;51.288;12.390;2023-05-16T17:13:18;48881.53;;;-144.47;31.20
31585;BME280;18191;51.288;12.390;2023-05-16T17:18:08;48845.72;;;-144.47;30.47
31585;BME280;18191;51.288;12.390;2023-05-16T17:22:59;48861.63;;;-144.47;30.76
31585;BME280;18191;51.288;12.390;2023-05-16T17:27:49;48857.66;;;-144.47;29.60
31585;BME280;18191;51.288;12.390;2023-05-16T17:32:39;48861.63;;;-144.47;29.68
31585;BME280;18191;51.288;12.390;2023-05-16T17:37:30;48865.63;;;-144.47;29.70
31585;BME280;18191;51.288;12.390;2023-05-16T17:42:21;48869.59;;;-144.47;30.10
31585;BME280;18191;51.288;12.390;2023-05-16T17:47:12;48837.78;;;-144.47;29.63
31585;BME280;18191;51.288;12.390;2023-05-16T17:52:03;48881.53;;;-144.47;29.38
31585;BME280;18191;51.288;12.390;2023-05-16T17:56:54;48813.91;;;-144.47;31.14
31585;BME280;18191;51.288;12.390;2023-05-16T18:01:44;48869.59;;;-144.47;32.08
31585;BME280;18191;51.288;12.390;2023-05-16T18:06:36;48861.63;;;-144.47;32.45
31585;BME280;18191;51.288;12.390;2023-05-16T18:11:26;48845.72;;;-144.47;33.83
31585;BME280;18191;51.288;12.390;2023-05-16T18:16:16;48857.66;;;-144.47;33.53
31585;BME280;18191;51.288;12.390;2023-05-16T18:21:07;48853.69;;;-144.47;34.42
31585;BME280;18191;51.288;12.390;2023-05-16T18:25:58;48865.63;;;-144.47;34.75
31585;BME280;18191;51.288;12.390;2023-05-16T18:30:48;48877.56;;;-144.47;34.90
31585;BME280;18191;51.288;12.390;2023-05-16T18:35:38;48829.81;;;-144.47;35.73
31585;BME280;18191;51.288;12.390;2023-05-16T18:40:28;48851.69;;;-144.47;35.73
31585;BME280;18191;51.288;12.390;2023-05-16T18:45:19;48881.53;;;-144.47;36.66
31585;BME280;18191;51.288;12.390;2023-05-16T18:50:10;48869.59;;;-144.47;36.46
31585;BME280;18191;51.288;12.390;2023-05-16T18:55:00;48847.72;;;-144.47;36.69
31585;BME280;18191;51.288;12.390;2023-05-16T18:59:50;48841.75;;;-144.47;36.98
31585;BME280;18191;51.288;12.390;2023-05-16T19:04:41;48829.81;;;-144.47;37.45
31585;BME280;18191;51.288;12.390;2023-05-16T19:09:31;48885.50;;;-144.47;37.68
31585;BME280;18191;51.288;12.390;2023-05-16T19:14:22;48881.53;;;-144.47;37.90
31585;BME280;18191;51.288;12.390;2023-05-16T19:19:12;48881.53;;;-144.47;37.68
31585;BME280;18191;51.288;12.390;2023-05-16T19:24:02;48837.78;;;-144.47;38.08
31585;BME280;18191;51.288;12.390;2023-05-16T19:28:54;48901.41;;;-144.47;38.41
31585;BME280;18191;51.288;12.390;2023-05-16T19:33:44;48869.59;;;-144.47;38.64
31585;BME280;18191;51.288;12.390;2023-05-16T19:38:35;48863.63;;;-144.47;39.11
31585;BME280;18191;51.288;12.390;2023-05-16T19:43:25;48929.28;;;-144.47;39.03
31585;BME280;18191;51.288;12.390;2023-05-16T19:48:15;48877.56;;;-144.47;39.50
31585;BME280;18191;51.288;12.390;2023-05-16T19:53:08;48837.78;;;-144.47;39.98
31585;BME280;18191;51.288;12.390;2023-05-16T19:57:58;48821.84;;;-144.47;39.77
31585;BME280;18191;51.288;12.390;2023-05-16T20:02:48;48845.72;;;-144.47;40.58
31585;BME280;18191;51.288;12.390;2023-05-16T20:07:39;48885.50;;;-144.47;41.08
31585;BME280;18191;51.288;12.390;2023-05-16T20:12:29;48887.50;;;-144.47;41.51
31585;BME280;18191;51.288;12.390;2023-05-16T20:17:19;48839.75;;;-144.47;41.91
31585;BME280;18191;51.288;12.390;2023-05-16T20:22:09;48863.63;;;-144.47;42.38
31585;BME280;18191;51.288;12.390;2023-05-16T20:27:00;48885.50;;;-144.47;42.60
31585;BME280;18191;51.288;12.390;2023-05-16T20:31:50;48885.50;;;-144.47;43.06
31585;BME280;18191;51.288;12.390;2023-05-16T20:36:40;48861.63;;;-144.47;43.06
31585;BME280;18191;51.288;12.390;2023-05-16T20:41:31;48901.41;;;-144.47;42.40
31585;BME280;18191;51.288;12.390;2023-05-16T20:46:21;48857.66;;;-144.47;42.84
31585;BME280;18191;51.288;12.390;2023-05-16T20:51:11;48853.69;;;-144.47;43.48
31585;BME280;18191;51.288;12.390;2023-05-16T20:56:01;48893.47;;;-144.47;43.52
31585;BME280;18191;51.288;12.390;2023-05-16T21:00:51;48889.50;;;-144.47;44.67
31585;BME280;18191;51.288;12.390;2023-05-16T21:05:41;48863.63;;;-144.47;45.00
31585;BME280;18191;51.288;12.390;2023-05-16T21:10:32;48889.50;;;-144.47;45.58
31585;BME280;18191;51.288;12.390;2023-05-16T21:15:22;48869.59;;;-144.47;45.98
31585;BME280;18191;51.288;12.390;2023-05-16T21:20:12;48869.59;;;-144.47;46.38
31585;BME280;18191;51.288;12.390;2023-05-16T21:25:03;48901.41;;;-144.47;46.80
31585;BME280;18191;51.288;12.390;2023-05-16T21:29:53;48891.47;;;-144.47;46.61
31585;BME280;18191;51.288;12.390;2023-05-16T21:34:43;48891.47;;;-144.47;46.70
31585;BME280;18191;51.288;12.390;2023-05-16T21:39:33;48867.59;;;-144.47;47.01
31585;BME280;18191;51.288;12.390;2023-05-16T21:44:24;48883.53;;;-144.47;47.57
31585;BME280;18191;51.288;12.390;2023-05-16T21:49:14;48897.44;;;-144.47;48.59
31585;BME280;18191;51.288;12.390;2023-05-16T21:54:04;48857.66;;;-144.47;48.26
31585;BME280;18191;51.288;12.390;2023-05-16T21:58:55;48897.44;;;-144.47;49.85
31585;BME280;18191;51.288;12.390;2023-05-16T22:03:46;48905.41;;;-144.47;50.62
31585;BME280;18191;51.288;12.390;2023-05-16T22:08:36;48909.38;;;-144.47;50.34
31585;BME280;18191;51.288;12.390;2023-05-16T22:13:27;48857.66;;;-144.47;51.89
31585;BME280;18191;51.288;12.390;2023-05-16T22:18:17;48883.53;;;-144.47;52.19
31585;BME280;18191;51.288;12.390;2023-05-16T22:23:07;48865.63;;;-144.47;52.48
31585;BME280;18191;51.288;12.390;2023-05-16T22:27:57;48903.41;;;-144.47;54.91
31585;BME280;18191;51.288;12.390;2023-05-16T22:32:47;48891.47;;;-144.47;56.19
31585;BME280;18191;51.288;12.390;2023-05-16T22:37:37;48905.41;;;-144.47;58.35
31585;BME280;18191;51.288;12.390;2023-05-16T22:42:28;48893.47;;;-144.47;58.04
31585;BME280;18191;51.288;12.390;2023-05-16T22:47:19;48889.50;;;-144.47;59.80
31585;BME280;18191;51.288;12.390;2023-05-16T22:52:09;48917.34;;;-144.47;60.47
31585;BME280;18191;51.288;12.390;2023-05-16T22:57:00;48933.25;;;-144.47;61.70
31585;BME280;18191;51.288;12.390;2023-05-16T23:01:50;48877.56;;;-144.47;62.68
31585;BME280;18191;51.288;12.390;2023-05-16T23:06:40;48909.38;;;-144.47;63.66
31585;BME280;18191;51.288;12.390;2023-05-16T23:11:30;48885.50;;;-144.47;63.94
31585;BME280;18191;51.288;12.390;2023-05-16T23:16:21;48893.47;;;-144.47;64.30
31585;BME280;18191;51.288;12.390;2023-05-16T23:21:11;48917.34;;;-144.47;65.40
31585;BME280;18191;51.288;12.390;2023-05-16T23:26:01;48929.28;;;-144.47;65.53
31585;BME280;18191;51.288;12.390;2023-05-16T23:30:51;48897.44;;;-144.47;65.75
31585;BME280;18191;51.288;12.390;2023-05-16T23:35:41;48905.41;;;-144.47;66.33
31585;BME280;18191;51.288;12.390;2023-05-16T23:40:31;48893.47;;;-144.47;66.75
31585;BME280;18191;51.288;12.390;2023-05-16T23:45:22;48941.19;;;-144.47;66.90
31585;BME280;18191;51.288;12.390;2023-05-16T23:50:12;48901.41;;;-144.47;67.73
31585;BME280;18191;51.288;12.390;2023-05-16T23:55:02;48921.31;;;-144.47;67.97
31585;BME280;18191;51.288;12.390;2023-05-16T23:59:52;48849.69;;;-144.47;68.65
